createdAt,value
2023-03-07T00:02:28.097Z,5.10
2023-03-07T00:06:11.527Z,4.72
2023-03-07T00:09:53.297Z,4.72
2023-03-07T00:13:37.208Z,5.03
2023-03-07T00:17:18.935Z,5.20
2023-03-07T00:21:03.592Z,7.50
2023-03-07T00:24:47.578Z,5.32
2023-03-07T00:28:29.585Z,4.18
2023-03-07T00:32:11.414Z,5.50
2023-03-07T00:35:58.281Z,4.25
2023-03-07T00:39:40.076Z,6.07
2023-03-07T00:43:21.861Z,4.72
2023-03-07T00:47:03.626Z,5.18
2023-03-07T00:50:45.980Z,4.50
2023-03-07T00:54:27.714Z,3.92
2023-03-07T00:58:09.578Z,4.13
2023-03-07T01:01:52.305Z,3.17
2023-03-07T01:05:39.303Z,4.22
2023-03-07T01:09:21.220Z,3.97
2023-03-07T01:13:03.335Z,2.95
2023-03-07T01:16:45.248Z,3.58
2023-03-07T01:20:27.233Z,5.05
2023-03-07T01:24:13.164Z,4.75
2023-03-07T01:27:56.217Z,3.72
2023-03-07T01:31:38.147Z,5.43
2023-03-07T01:35:19.937Z,8.00
2023-03-07T01:39:06.561Z,3.90
2023-03-07T01:42:48.575Z,3.65
2023-03-07T01:46:42.501Z,7.57
2023-03-07T01:50:24.624Z,4.78
2023-03-07T01:54:09.664Z,7.60
2023-03-07T01:57:53.214Z,5.40
2023-03-07T02:01:35.943Z,5.20
2023-03-07T02:05:28.057Z,3.97
2023-03-07T02:09:15.894Z,4.28
2023-03-07T02:12:57.814Z,6.45
2023-03-07T02:16:40.010Z,6.50
2023-03-07T02:20:29.484Z,6.82
2023-03-07T02:24:20.221Z,4.72
2023-03-07T02:28:04.485Z,4.40
2023-03-07T02:31:47.143Z,4.63
2023-03-07T02:35:29.003Z,9.05
2023-03-07T02:39:11.006Z,5.00
2023-03-07T02:42:55.722Z,4.57
2023-03-07T02:46:37.528Z,10.63
2023-03-07T02:50:19.476Z,6.93
2023-03-07T02:54:01.616Z,8.80
2023-03-07T02:57:43.379Z,5.85
2023-03-07T03:01:25.258Z,3.78
2023-03-07T03:05:07.501Z,5.22
2023-03-07T03:08:49.216Z,4.28
2023-03-07T03:12:31.002Z,4.20
2023-03-07T03:16:12.808Z,4.20
2023-03-07T03:19:54.741Z,6.07
2023-03-07T03:23:37.505Z,7.50
2023-03-07T03:27:19.249Z,4.40
2023-03-07T03:31:02.906Z,4.63
2023-03-07T03:34:44.639Z,0.93
2023-03-07T03:38:27.317Z,1.25
2023-03-07T03:42:09.120Z,0.95
2023-03-07T03:45:57.777Z,2.40
2023-03-07T03:49:39.532Z,0.85
2023-03-07T03:53:21.274Z,0.70
2023-03-07T03:57:03.176Z,1.00
2023-03-07T04:00:44.997Z,1.02
2023-03-07T04:04:26.720Z,2.38
2023-03-07T04:08:08.432Z,1.17
2023-03-07T04:11:50.238Z,1.00
2023-03-07T04:15:32.064Z,1.48
2023-03-07T04:19:13.929Z,2.35
2023-03-07T04:22:55.670Z,1.27
2023-03-07T04:26:37.513Z,3.45
2023-03-07T04:30:20.005Z,1.73
2023-03-07T04:34:01.848Z,4.90
2023-03-07T04:37:43.883Z,1.00
2023-03-07T04:41:26.724Z,2.03
2023-03-07T04:45:09.159Z,2.55
2023-03-07T04:48:50.978Z,1.20
2023-03-07T04:52:33.393Z,1.35
2023-03-07T04:56:16.254Z,1.73
2023-03-07T04:59:58.024Z,5.50
2023-03-07T05:03:39.773Z,4.20
2023-03-07T05:07:21.514Z,1.52
2023-03-07T05:11:03.324Z,2.25
2023-03-07T05:14:45.127Z,3.22
2023-03-07T05:18:28.000Z,1.63
2023-03-07T05:22:09.835Z,2.05
2023-03-07T05:25:51.832Z,2.22
2023-03-07T05:29:33.548Z,1.40
2023-03-07T05:33:15.769Z,3.38
2023-03-07T05:36:58.362Z,2.30
2023-03-07T05:40:40.935Z,2.70
2023-03-07T05:44:22.666Z,2.65
2023-03-07T05:48:04.484Z,2.25
2023-03-07T05:51:46.232Z,2.10
2023-03-07T05:55:28.104Z,2.47
2023-03-07T05:59:12.973Z,2.92
2023-03-07T06:02:55.014Z,4.43
2023-03-07T06:06:36.925Z,3.40
2023-03-07T06:10:18.846Z,3.13
2023-03-07T06:14:00.768Z,2.10
2023-03-07T06:17:42.970Z,2.08
2023-03-07T06:21:24.778Z,4.30
2023-03-07T06:25:08.593Z,3.40
2023-03-07T06:28:50.590Z,4.90
2023-03-07T06:32:33.118Z,2.88
2023-03-07T06:36:17.377Z,4.15
2023-03-07T06:39:59.197Z,3.05
2023-03-07T06:43:40.972Z,3.90
2023-03-07T06:47:23.112Z,5.03
2023-03-07T06:51:09.394Z,7.70
2023-03-07T06:54:51.416Z,3.58
2023-03-07T06:58:33.195Z,6.20
2023-03-07T07:02:15.459Z,3.40
2023-03-07T07:05:57.273Z,4.70
2023-03-07T07:09:39.196Z,4.55
2023-03-07T07:13:20.946Z,4.30
2023-03-07T07:17:03.352Z,4.20
2023-03-07T07:20:45.211Z,5.15
2023-03-07T07:24:27.580Z,4.68
2023-03-07T07:28:09.330Z,5.35
2023-03-07T07:31:51.243Z,5.72
2023-03-07T07:35:33.023Z,7.13
2023-03-07T07:39:15.321Z,4.35
2023-03-07T07:42:57.052Z,3.88
2023-03-07T07:46:38.836Z,4.68
2023-03-07T07:50:22.246Z,4.50
2023-03-07T07:54:04.005Z,5.13
2023-03-07T07:57:45.933Z,6.22
2023-03-07T08:01:27.726Z,4.40
2023-03-07T08:05:12.703Z,8.23
2023-03-07T08:08:55.491Z,3.90
2023-03-07T08:12:37.579Z,3.75
2023-03-07T08:16:22.521Z,3.42
2023-03-07T08:20:09.230Z,4.85
2023-03-07T08:23:51.241Z,5.57
2023-03-07T08:27:33.687Z,5.47
2023-03-07T08:31:18.721Z,7.13
2023-03-07T08:35:00.520Z,5.75
2023-03-07T08:38:43.047Z,2.20
2023-03-07T08:42:24.959Z,5.53
2023-03-07T08:46:07.196Z,3.67
2023-03-07T08:49:49.023Z,6.90
2023-03-07T08:53:30.785Z,4.57
2023-03-07T08:57:12.584Z,7.18
2023-03-07T09:00:54.359Z,4.03
2023-03-07T09:04:36.175Z,7.65
2023-03-07T09:08:18.929Z,5.75
2023-03-07T09:12:00.736Z,6.45
2023-03-07T09:15:42.543Z,6.22
2023-03-07T09:19:28.794Z,7.72
2023-03-07T09:23:10.898Z,5.63
2023-03-07T09:26:53.002Z,3.60
2023-03-07T09:30:34.791Z,7.38
2023-03-07T09:34:16.657Z,3.63
2023-03-07T09:37:58.457Z,3.60
2023-03-07T09:42:01.472Z,4.40
2023-03-07T09:46:07.450Z,5.20
2023-03-07T09:49:54.151Z,2.15
2023-03-07T09:54:17.318Z,2.13
2023-03-07T09:58:06.548Z,4.25
2023-03-07T10:02:20.318Z,4.53
2023-03-07T10:06:27.019Z,4.22
2023-03-07T10:10:18.744Z,5.90
2023-03-07T10:14:24.299Z,2.67
2023-03-07T10:18:21.293Z,1.75
2023-03-07T10:22:24.317Z,2.08
2023-03-07T10:26:12.773Z,1.48
2023-03-07T10:29:56.426Z,10.07
2023-03-07T10:33:42.898Z,1.70
2023-03-07T10:37:36.586Z,2.73
2023-03-07T10:41:21.542Z,3.22
2023-03-07T10:45:03.602Z,2.33
2023-03-07T10:48:52.683Z,2.47
2023-03-07T10:52:40.548Z,2.33
2023-03-07T10:56:22.567Z,3.25
2023-03-07T11:00:16.312Z,3.50
2023-03-07T11:04:05.068Z,2.45
2023-03-07T11:07:47.051Z,2.90
2023-03-07T11:11:32.298Z,4.55
2023-03-07T11:15:24.202Z,2.05
2023-03-07T11:19:39.664Z,3.03
2023-03-07T11:23:32.888Z,2.45
2023-03-07T11:27:30.394Z,3.20
2023-03-07T11:31:40.544Z,1.42
2023-03-07T11:35:44.325Z,2.03
2023-03-07T11:39:42.854Z,1.58
2023-03-07T11:43:33.138Z,4.22
2023-03-07T11:47:34.153Z,1.75
2023-03-07T11:51:29.677Z,1.67
2023-03-07T11:55:26.535Z,3.40
2023-03-07T11:59:22.214Z,4.88
2023-03-07T12:03:27.059Z,2.17
2023-03-07T12:07:43.553Z,2.15
2023-03-07T12:11:52.583Z,2.97
2023-03-07T12:15:40.295Z,1.95
2023-03-07T12:19:34.632Z,1.70
2023-03-07T12:23:39.132Z,2.42
2023-03-07T12:27:30.890Z,1.15
2023-03-07T12:31:26.512Z,1.42
2023-03-07T12:35:32.681Z,3.30
2023-03-07T12:39:27.424Z,6.00
2023-03-07T12:43:37.730Z,2.05
2023-03-07T12:47:36.894Z,2.60
2023-03-07T12:51:21.443Z,1.48
2023-03-07T12:55:31.524Z,3.20
2023-03-07T12:59:15.482Z,1.58
2023-03-07T13:03:01.905Z,1.88
2023-03-07T13:06:45.014Z,1.83
2023-03-07T13:10:27.388Z,2.15
2023-03-07T13:14:30.685Z,2.88
2023-03-07T13:18:30.908Z,2.90
2023-03-07T13:22:15.426Z,2.63
2023-03-07T13:25:59.924Z,2.00
2023-03-07T13:30:13.440Z,2.15
2023-03-07T13:33:55.268Z,1.27
2023-03-07T13:37:52.134Z,1.85
2023-03-07T13:41:49.490Z,1.58
2023-03-07T13:45:40.455Z,3.03
2023-03-07T13:49:48.727Z,1.02
2023-03-07T13:53:36.100Z,2.70
2023-03-07T13:57:20.382Z,2.17
2023-03-07T14:01:16.142Z,1.73
2023-03-07T14:05:03.052Z,1.02
2023-03-07T14:08:45.897Z,1.35
2023-03-07T14:12:31.212Z,3.00
2023-03-07T14:16:17.359Z,3.33
2023-03-07T14:20:21.119Z,3.20
2023-03-07T14:24:02.893Z,1.52
2023-03-07T14:27:54.519Z,1.23
2023-03-07T14:31:41.983Z,1.60
2023-03-07T14:35:40.601Z,3.08
2023-03-07T14:39:23.810Z,1.42
2023-03-07T14:43:17.480Z,2.15
2023-03-07T14:47:15.825Z,2.55
2023-03-07T14:51:08.606Z,3.53
2023-03-07T14:54:53.645Z,2.72
2023-03-07T14:58:47.046Z,1.40
2023-03-07T15:02:28.830Z,5.07
2023-03-07T15:06:15.271Z,0.80
2023-03-07T15:09:57.085Z,0.87
2023-03-07T15:13:46.403Z,1.85
2023-03-07T15:17:43.654Z,4.60
2023-03-07T15:21:30.256Z,2.10
2023-03-07T15:25:25.919Z,4.07
2023-03-07T15:29:09.115Z,3.65
2023-03-07T15:33:04.837Z,1.17
2023-03-07T15:36:46.597Z,1.30
2023-03-07T15:40:35.872Z,1.60
2023-03-07T15:44:19.544Z,1.90
2023-03-07T15:48:29.656Z,0.95
2023-03-07T15:52:31.602Z,2.78
2023-03-07T15:56:30.408Z,1.25
2023-03-07T16:00:20.759Z,1.33
2023-03-07T16:04:04.348Z,1.25
2023-03-07T16:07:47.264Z,1.17
2023-03-07T16:11:29.068Z,0.75
2023-03-07T16:15:14.790Z,0.88
2023-03-07T16:18:58.219Z,3.50
2023-03-07T16:22:39.987Z,1.88
2023-03-07T16:26:23.842Z,2.38
2023-03-07T16:30:32.674Z,1.92
2023-03-07T16:34:22.802Z,1.73
2023-03-07T16:38:04.593Z,2.08
2023-03-07T16:41:48.632Z,3.08
2023-03-07T16:45:31.894Z,1.48
2023-03-07T16:49:18.053Z,4.03
2023-03-07T16:53:00.371Z,1.67
2023-03-07T16:56:45.069Z,1.77
2023-03-07T17:00:28.344Z,2.50
2023-03-07T17:04:10.168Z,2.70
2023-03-07T17:07:56.566Z,1.30
2023-03-07T17:11:41.064Z,2.07
2023-03-07T17:15:30.294Z,1.67
2023-03-07T17:19:28.063Z,2.67
2023-03-07T17:23:09.906Z,5.32
2023-03-07T17:26:53.527Z,3.47
2023-03-07T17:30:35.375Z,4.30
2023-03-07T17:34:31.770Z,3.17
2023-03-07T17:38:13.612Z,1.67
2023-03-07T17:41:56.115Z,2.08
2023-03-07T17:45:39.128Z,3.83
2023-03-07T17:49:22.301Z,1.83
2023-03-07T17:53:04.070Z,2.35
2023-03-07T17:56:45.815Z,3.92
2023-03-07T18:00:27.743Z,4.80
2023-03-07T18:04:09.555Z,5.85
2023-03-07T18:07:53.514Z,4.50
2023-03-07T18:11:35.704Z,3.13
2023-03-07T18:15:19.927Z,6.03
2023-03-07T18:19:04.077Z,4.35
2023-03-07T18:22:46.732Z,4.03
2023-03-07T18:26:28.659Z,5.15
2023-03-07T18:30:11.979Z,10.10
2023-03-07T18:33:54.186Z,5.75
2023-03-07T18:37:36.548Z,9.88
2023-03-07T18:41:23.656Z,6.65
2023-03-07T18:45:06.190Z,5.63
2023-03-07T18:48:48.890Z,4.75
2023-03-07T18:52:30.655Z,3.13
2023-03-07T18:56:15.227Z,7.00
2023-03-07T18:59:56.997Z,18.10
2023-03-07T19:03:39.336Z,5.97
2023-03-07T19:07:23.295Z,5.82
2023-03-07T19:11:07.597Z,9.93
2023-03-07T19:14:51.026Z,10.18
2023-03-07T19:18:34.946Z,5.63
2023-03-07T19:22:22.338Z,8.55
2023-03-07T19:26:08.145Z,11.45
2023-03-07T19:29:51.154Z,15.13
2023-03-07T19:33:33.934Z,11.63
2023-03-07T19:37:17.744Z,8.38
2023-03-07T19:41:00.246Z,9.60
2023-03-07T19:44:42.063Z,7.68
2023-03-07T19:48:25.010Z,7.65
2023-03-07T19:52:06.858Z,8.57
2023-03-07T19:55:48.700Z,7.85
2023-03-07T19:59:30.830Z,6.88
2023-03-07T20:03:18.869Z,8.50
2023-03-07T20:07:02.009Z,6.07
2023-03-07T20:10:45.972Z,5.68
2023-03-07T20:14:29.158Z,8.60
2023-03-07T20:18:11.576Z,8.35
2023-03-07T20:21:55.006Z,12.43
2023-03-07T20:25:38.168Z,7.72
2023-03-07T20:29:20.981Z,9.45
2023-03-07T20:33:02.817Z,6.63
2023-03-07T20:36:45.709Z,9.30
2023-03-07T20:40:27.530Z,9.00
2023-03-07T20:44:13.001Z,9.68
2023-03-07T20:47:54.726Z,15.75
2023-03-07T20:51:36.677Z,7.45
2023-03-07T20:55:18.951Z,8.40
2023-03-07T20:59:01.443Z,12.80
2023-03-07T21:02:43.226Z,12.68
2023-03-07T21:06:25.210Z,8.27
2023-03-07T21:10:07.412Z,10.52
2023-03-07T21:13:50.039Z,7.35
2023-03-07T21:17:31.778Z,9.48
2023-03-07T21:21:19.059Z,9.85
2023-03-07T21:28:45.948Z,7.55
2023-03-07T21:32:28.126Z,8.77
2023-03-07T21:36:13.881Z,12.15
2023-03-07T21:39:57.049Z,9.57
2023-03-07T21:43:39.723Z,12.57
2023-03-07T21:47:22.032Z,12.65
2023-03-07T21:51:05.513Z,12.70
2023-03-07T21:54:47.450Z,9.75
2023-03-07T21:58:32.189Z,14.23
2023-03-07T22:02:14.536Z,10.35
2023-03-07T22:05:57.396Z,12.15
2023-03-07T22:09:39.384Z,10.18
2023-03-07T22:13:21.166Z,14.45
2023-03-07T22:17:02.921Z,8.57
2023-03-07T22:20:44.705Z,11.07
2023-03-07T22:24:26.476Z,10.68
2023-03-07T22:28:08.287Z,17.80
2023-03-07T22:31:50.074Z,8.85
2023-03-07T22:35:31.929Z,9.80
2023-03-07T22:39:13.675Z,8.20
2023-03-07T22:42:55.425Z,8.55
2023-03-07T22:46:37.216Z,9.70
2023-03-07T22:50:19.040Z,10.38
2023-03-07T22:54:03.456Z,12.88
2023-03-07T22:57:45.196Z,8.57
2023-03-07T23:01:29.098Z,9.15
2023-03-07T23:05:11.240Z,7.75
2023-03-07T23:08:53.625Z,8.45
2023-03-07T23:12:35.385Z,8.40
2023-03-07T23:16:19.790Z,8.73
2023-03-07T23:20:01.562Z,8.15
2023-03-07T23:23:43.590Z,10.88
2023-03-07T23:27:25.388Z,9.75
2023-03-07T23:31:16.585Z,8.13
2023-03-07T23:34:58.514Z,7.30
2023-03-07T23:38:41.026Z,11.27
2023-03-07T23:42:23.147Z,6.53
2023-03-07T23:46:05.052Z,7.88
2023-03-07T23:49:46.847Z,7.15
2023-03-07T23:53:28.637Z,6.13
2023-03-07T23:57:10.397Z,7.63
